createdAt,value
2017-10-31T00:02:15.633Z,4.60
2017-10-31T00:04:41.834Z,4.50
2017-10-31T00:07:08.047Z,4.50
2017-10-31T00:09:34.287Z,4.50
2017-10-31T00:12:00.503Z,4.50
2017-10-31T00:14:26.727Z,4.40
2017-10-31T00:16:52.917Z,4.40
2017-10-31T00:19:19.158Z,4.40
2017-10-31T00:21:45.743Z,4.40
2017-10-31T00:24:11.945Z,4.40
2017-10-31T00:26:38.165Z,4.40
2017-10-31T00:29:04.398Z,4.40
2017-10-31T00:31:30.640Z,4.40
2017-10-31T00:33:56.885Z,4.30
2017-10-31T00:36:23.149Z,4.30
2017-10-31T00:38:49.349Z,4.30
2017-10-31T00:41:15.621Z,4.30
2017-10-31T00:43:41.871Z,4.40
2017-10-31T00:46:08.072Z,4.20
2017-10-31T00:48:34.287Z,4.30
2017-10-31T00:51:00.515Z,4.20
2017-10-31T00:53:26.708Z,4.20
2017-10-31T00:55:52.930Z,4.20
2017-10-31T00:58:19.124Z,4.30
2017-10-31T01:00:45.338Z,4.20
2017-10-31T01:03:11.902Z,4.10
2017-10-31T01:05:38.125Z,4.00
2017-10-31T01:08:04.326Z,4.10
2017-10-31T01:10:30.919Z,4.10
2017-10-31T01:12:57.122Z,4.10
2017-10-31T01:15:23.340Z,4.00
2017-10-31T01:17:49.537Z,4.10
2017-10-31T01:20:15.749Z,4.00
2017-10-31T01:22:41.949Z,4.00
2017-10-31T01:25:08.171Z,4.00
2017-10-31T01:27:34.407Z,4.00
2017-10-31T01:30:00.608Z,3.90
2017-10-31T01:32:26.804Z,4.00
2017-10-31T01:34:53.030Z,4.10
2017-10-31T01:37:19.248Z,4.00
2017-10-31T01:39:45.443Z,4.10
2017-10-31T01:42:11.715Z,4.10
2017-10-31T01:44:37.950Z,4.00
2017-10-31T01:47:04.152Z,4.00
2017-10-31T01:49:30.370Z,4.10
2017-10-31T01:51:56.641Z,4.00
2017-10-31T01:54:23.226Z,3.90
2017-10-31T01:56:49.459Z,3.90
2017-10-31T01:59:15.693Z,3.90
2017-10-31T02:01:41.928Z,3.90
2017-10-31T02:04:08.182Z,3.90
2017-10-31T02:06:34.858Z,3.80
2017-10-31T02:09:01.091Z,3.80
2017-10-31T02:11:27.385Z,3.70
2017-10-31T02:13:53.588Z,3.70
2017-10-31T02:16:19.847Z,3.70
2017-10-31T02:18:46.449Z,3.60
2017-10-31T02:21:12.687Z,3.60
2017-10-31T02:23:38.958Z,3.60
2017-10-31T02:26:05.218Z,3.50
2017-10-31T02:28:31.507Z,3.40
2017-10-31T02:30:58.122Z,3.50
2017-10-31T02:33:24.386Z,3.40
2017-10-31T02:35:50.618Z,3.40
2017-10-31T02:38:16.859Z,3.30
2017-10-31T02:40:43.112Z,3.40
2017-10-31T02:43:09.409Z,3.40
2017-10-31T02:45:35.631Z,3.50
2017-10-31T02:48:01.885Z,3.40
2017-10-31T02:50:28.147Z,3.50
2017-10-31T02:52:54.405Z,3.50
2017-10-31T02:55:20.619Z,3.50
2017-10-31T02:57:47.258Z,3.50
2017-10-31T03:00:13.851Z,3.40
2017-10-31T03:02:40.106Z,3.40
2017-10-31T03:05:06.332Z,3.40
2017-10-31T03:07:32.663Z,3.50
2017-10-31T03:09:58.943Z,3.50
2017-10-31T03:12:25.181Z,3.50
2017-10-31T03:14:51.409Z,3.40
2017-10-31T03:17:17.648Z,3.50
2017-10-31T03:19:43.903Z,3.50
2017-10-31T03:22:10.158Z,3.40
2017-10-31T03:24:36.780Z,3.30
2017-10-31T03:27:03.018Z,3.30
2017-10-31T03:29:29.657Z,3.30
2017-10-31T03:31:56.240Z,3.40
2017-10-31T03:34:22.488Z,3.40
2017-10-31T03:36:48.710Z,3.40
2017-10-31T03:39:14.952Z,3.40
2017-10-31T03:41:41.223Z,3.40
2017-10-31T03:44:07.468Z,3.40
2017-10-31T03:46:33.714Z,3.40
2017-10-31T03:48:59.969Z,3.30
2017-10-31T03:51:26.191Z,3.30
2017-10-31T03:53:53.453Z,3.40
2017-10-31T03:56:19.676Z,3.30
2017-10-31T03:58:46.464Z,3.30
2017-10-31T04:01:12.678Z,3.20
2017-10-31T04:03:39.798Z,3.20
2017-10-31T04:06:06.043Z,3.10
2017-10-31T04:08:32.658Z,3.30
2017-10-31T04:10:58.877Z,3.30
2017-10-31T04:13:25.157Z,3.40
2017-10-31T04:15:51.749Z,3.20
2017-10-31T04:18:17.976Z,3.20
2017-10-31T04:20:44.223Z,3.20
2017-10-31T04:23:10.453Z,3.30
2017-10-31T04:25:36.661Z,3.10
2017-10-31T04:28:02.919Z,3.00
2017-10-31T04:30:29.528Z,3.00
2017-10-31T04:32:55.735Z,3.00
2017-10-31T04:35:21.981Z,3.00
2017-10-31T04:37:48.213Z,3.00
2017-10-31T04:40:14.483Z,3.10
2017-10-31T04:42:41.094Z,3.00
2017-10-31T04:45:07.340Z,3.10
2017-10-31T04:47:33.932Z,3.00
2017-10-31T04:50:00.148Z,3.00
2017-10-31T04:52:26.367Z,3.00
2017-10-31T04:54:52.609Z,3.00
2017-10-31T04:57:18.844Z,3.00
2017-10-31T04:59:45.058Z,3.00
2017-10-31T05:02:12.246Z,3.00
2017-10-31T05:04:38.486Z,3.00
2017-10-31T05:07:04.737Z,3.00
2017-10-31T05:09:30.951Z,3.00
2017-10-31T05:11:57.537Z,3.00
2017-10-31T05:14:23.738Z,3.10
2017-10-31T05:16:49.945Z,3.00
2017-10-31T05:19:16.509Z,3.10
2017-10-31T05:21:42.712Z,3.10
2017-10-31T05:24:08.975Z,3.10
2017-10-31T05:26:35.240Z,3.00
2017-10-31T05:29:01.441Z,3.00
2017-10-31T05:31:27.675Z,3.00
2017-10-31T05:33:53.879Z,3.00
2017-10-31T05:36:20.098Z,2.90
2017-10-31T05:38:46.302Z,2.90
2017-10-31T05:41:12.880Z,2.90
2017-10-31T05:43:40.030Z,2.90
2017-10-31T05:46:06.236Z,2.90
2017-10-31T05:48:32.480Z,2.90
2017-10-31T05:50:58.693Z,3.10
2017-10-31T05:53:24.896Z,3.00
2017-10-31T05:55:51.099Z,3.00
2017-10-31T05:58:17.368Z,2.90
2017-10-31T06:00:43.600Z,2.90
2017-10-31T06:03:09.811Z,2.90
2017-10-31T06:05:36.037Z,2.90
2017-10-31T06:08:02.285Z,2.80
2017-10-31T06:10:28.537Z,2.80
2017-10-31T06:12:54.754Z,2.80
2017-10-31T06:15:20.975Z,2.80
2017-10-31T06:17:47.925Z,2.90
2017-10-31T06:20:14.142Z,2.90
2017-10-31T06:22:46.337Z,2.90
2017-10-31T06:25:18.644Z,3.00
2017-10-31T06:27:51.288Z,2.90
2017-10-31T06:30:23.640Z,2.90
2017-10-31T06:32:51.061Z,3.00
2017-10-31T06:35:17.622Z,2.90
2017-10-31T06:37:43.818Z,2.90
2017-10-31T06:40:10.017Z,2.90
2017-10-31T06:42:36.289Z,2.90
2017-10-31T06:45:02.568Z,2.90
2017-10-31T06:47:28.804Z,2.90
2017-10-31T06:49:54.992Z,3.00
2017-10-31T06:52:21.229Z,2.90
2017-10-31T06:54:47.445Z,2.90
2017-10-31T06:57:13.662Z,3.00
2017-10-31T06:59:39.854Z,3.00
2017-10-31T07:02:06.159Z,3.00
2017-10-31T07:04:33.217Z,3.10
2017-10-31T07:06:59.483Z,3.30
2017-10-31T07:09:26.115Z,3.30
2017-10-31T07:11:52.725Z,3.40
2017-10-31T07:14:18.960Z,3.50
2017-10-31T07:16:45.186Z,3.40
2017-10-31T07:19:11.369Z,3.30
2017-10-31T07:21:37.580Z,3.40
2017-10-31T07:24:04.189Z,3.50
2017-10-31T07:26:30.439Z,3.50
2017-10-31T07:28:57.115Z,3.50
2017-10-31T07:31:23.330Z,3.50
2017-10-31T07:33:49.696Z,3.60
2017-10-31T07:36:15.942Z,3.70
2017-10-31T07:38:42.155Z,3.70
2017-10-31T07:41:08.378Z,3.80
2017-10-31T07:43:34.606Z,3.90
2017-10-31T07:46:01.598Z,3.90
2017-10-31T07:48:27.842Z,3.90
2017-10-31T07:50:54.082Z,3.80
2017-10-31T07:53:20.346Z,4.00
2017-10-31T07:55:47.208Z,4.10
2017-10-31T07:58:13.504Z,4.20
2017-10-31T08:00:39.721Z,4.10
2017-10-31T08:03:06.223Z,4.30
2017-10-31T08:05:32.486Z,4.50
2017-10-31T08:07:58.725Z,4.70
2017-10-31T08:10:24.982Z,4.80
2017-10-31T08:12:51.235Z,4.70
2017-10-31T08:15:18.267Z,4.80
2017-10-31T08:17:44.519Z,4.90
2017-10-31T08:20:11.510Z,4.90
2017-10-31T08:22:37.817Z,5.00
2017-10-31T08:25:10.997Z,5.00
2017-10-31T08:27:39.412Z,5.10
2017-10-31T08:30:06.532Z,5.30
2017-10-31T08:32:32.802Z,5.40
2017-10-31T08:34:59.072Z,5.50
2017-10-31T08:37:25.410Z,5.80
2017-10-31T08:39:51.714Z,5.90
2017-10-31T08:42:19.879Z,5.80
2017-10-31T08:44:47.472Z,6.00
2017-10-31T08:47:14.943Z,6.00
2017-10-31T08:49:41.550Z,6.10
2017-10-31T08:52:08.082Z,6.30
2017-10-31T08:54:34.342Z,6.40
2017-10-31T08:57:00.607Z,6.50
2017-10-31T08:59:26.973Z,6.70
2017-10-31T09:01:53.268Z,6.70
2017-10-31T09:04:20.088Z,6.60
2017-10-31T09:06:47.658Z,6.90
2017-10-31T09:09:13.956Z,6.90
2017-10-31T09:11:40.190Z,7.10
2017-10-31T09:14:06.512Z,7.20
2017-10-31T09:16:32.757Z,7.40
2017-10-31T09:18:59.120Z,7.60
2017-10-31T09:21:25.378Z,7.60
2017-10-31T09:23:51.633Z,7.80
2017-10-31T09:26:17.897Z,8.10
2017-10-31T09:28:44.219Z,8.30
2017-10-31T09:31:11.463Z,8.50
2017-10-31T09:33:37.729Z,8.60
2017-10-31T09:36:04.437Z,9.30
2017-10-31T09:38:30.662Z,9.30
2017-10-31T09:40:56.913Z,9.60
2017-10-31T09:43:23.166Z,9.80
2017-10-31T09:45:49.498Z,10.10
2017-10-31T09:48:16.097Z,11.10
2017-10-31T09:50:43.255Z,11.10
2017-10-31T09:53:09.535Z,11.80
2017-10-31T09:55:35.776Z,13.00
2017-10-31T09:58:02.041Z,15.10
2017-10-31T10:00:28.412Z,17.70
2017-10-31T10:02:54.692Z,20.80
2017-10-31T10:05:21.015Z,22.80
2017-10-31T10:07:47.246Z,24.20
2017-10-31T10:10:13.523Z,25.90
2017-10-31T10:12:40.084Z,27.30
2017-10-31T10:15:06.386Z,28.30
2017-10-31T10:17:32.604Z,29.50
2017-10-31T10:19:58.899Z,31.00
2017-10-31T10:22:25.125Z,32.90
2017-10-31T10:24:51.334Z,34.60
2017-10-31T10:27:17.606Z,35.50
2017-10-31T10:29:44.845Z,35.60
2017-10-31T10:32:11.134Z,36.60
2017-10-31T10:34:37.421Z,37.30
2017-10-31T10:37:03.721Z,36.70
2017-10-31T10:39:29.970Z,35.70
2017-10-31T10:41:56.194Z,36.00
2017-10-31T10:44:22.426Z,36.20
2017-10-31T10:46:48.673Z,35.10
2017-10-31T10:49:15.309Z,33.20
2017-10-31T10:51:42.040Z,33.50
2017-10-31T10:54:08.291Z,33.50
2017-10-31T10:56:34.555Z,35.10
2017-10-31T10:59:00.897Z,36.20
2017-10-31T11:01:27.226Z,36.10
2017-10-31T11:03:53.570Z,35.60
2017-10-31T11:06:19.819Z,34.80
2017-10-31T11:08:46.070Z,34.50
2017-10-31T11:11:12.311Z,34.00
2017-10-31T11:13:38.632Z,33.30
2017-10-31T11:16:04.870Z,32.20
2017-10-31T11:18:31.131Z,32.20
2017-10-31T11:20:57.418Z,31.20
2017-10-31T11:23:23.738Z,30.90
2017-10-31T11:25:50.004Z,30.60
2017-10-31T11:28:16.226Z,29.90
2017-10-31T11:30:42.512Z,29.40
2017-10-31T11:33:08.739Z,29.80
2017-10-31T11:35:34.999Z,31.10
2017-10-31T11:38:01.363Z,33.40
2017-10-31T11:40:27.650Z,36.00
2017-10-31T11:42:53.916Z,38.20
2017-10-31T11:45:20.172Z,39.80
2017-10-31T11:47:46.424Z,40.90
2017-10-31T11:50:12.707Z,41.50
2017-10-31T11:52:38.973Z,41.90
2017-10-31T11:55:05.635Z,41.60
2017-10-31T11:57:32.835Z,41.60
2017-10-31T11:59:59.132Z,40.10
2017-10-31T12:02:25.453Z,37.50
2017-10-31T12:04:51.716Z,35.10
2017-10-31T12:07:18.897Z,33.90
2017-10-31T12:09:45.514Z,31.40
2017-10-31T12:12:11.800Z,31.40
2017-10-31T12:14:38.047Z,29.80
2017-10-31T12:17:04.356Z,27.70
2017-10-31T12:19:30.595Z,26.10
2017-10-31T12:21:56.879Z,24.50
2017-10-31T12:24:23.517Z,22.20
2017-10-31T12:26:50.147Z,21.50
2017-10-31T12:29:16.456Z,21.50
2017-10-31T12:31:42.873Z,21.10
2017-10-31T12:34:09.557Z,20.80
2017-10-31T12:36:35.866Z,20.40
2017-10-31T12:39:03.885Z,19.90
2017-10-31T12:41:30.167Z,19.60
2017-10-31T12:43:56.403Z,19.60
2017-10-31T12:46:23.044Z,19.70
2017-10-31T12:48:49.712Z,19.60
2017-10-31T12:51:16.055Z,19.60
2017-10-31T12:53:42.488Z,19.40
2017-10-31T12:56:08.842Z,19.40
2017-10-31T12:58:35.133Z,19.60
2017-10-31T13:01:01.425Z,19.90
2017-10-31T13:03:28.062Z,20.60
2017-10-31T13:05:54.347Z,20.60
2017-10-31T13:08:20.630Z,21.40
2017-10-31T13:10:47.354Z,22.30
2017-10-31T13:13:13.685Z,22.30
2017-10-31T13:15:40.044Z,22.30
2017-10-31T13:18:06.442Z,21.80
2017-10-31T13:20:32.746Z,21.80
2017-10-31T13:22:59.088Z,23.00
2017-10-31T13:25:25.464Z,25.30
2017-10-31T13:27:52.733Z,31.20
2017-10-31T13:30:19.640Z,31.20
2017-10-31T13:32:46.635Z,33.50
2017-10-31T13:35:13.592Z,34.90
2017-10-31T13:37:40.466Z,34.80
2017-10-31T13:40:07.403Z,35.00
2017-10-31T13:42:34.394Z,35.30
2017-10-31T13:45:00.660Z,36.20
2017-10-31T13:47:27.530Z,37.00
2017-10-31T13:49:54.490Z,37.90
2017-10-31T13:52:21.314Z,38.40
2017-10-31T13:54:47.843Z,38.70
2017-10-31T13:57:14.815Z,38.80
2017-10-31T13:59:41.844Z,37.90
2017-10-31T14:02:08.620Z,37.90
2017-10-31T14:04:35.993Z,36.70
2017-10-31T14:07:02.886Z,36.70
2017-10-31T14:09:29.731Z,36.90
2017-10-31T14:11:56.560Z,37.10
2017-10-31T14:14:22.822Z,37.10
2017-10-31T14:16:49.434Z,35.30
2017-10-31T14:19:15.786Z,35.30
2017-10-31T14:21:42.635Z,32.30
2017-10-31T14:24:08.887Z,29.20
2017-10-31T14:26:35.160Z,26.40
2017-10-31T14:29:01.376Z,25.20
2017-10-31T14:31:27.610Z,25.10
2017-10-31T14:33:53.918Z,25.90
2017-10-31T14:36:20.157Z,26.90
2017-10-31T14:38:46.484Z,27.30
2017-10-31T14:41:12.733Z,27.50
2017-10-31T14:43:41.570Z,27.80
2017-10-31T14:46:07.910Z,27.10
2017-10-31T14:48:35.090Z,25.70
2017-10-31T14:51:01.363Z,23.50
2017-10-31T14:53:28.005Z,20.10
2017-10-31T14:55:54.661Z,19.00
2017-10-31T14:58:20.893Z,19.00
2017-10-31T15:00:47.207Z,17.90
2017-10-31T15:03:13.815Z,16.40
2017-10-31T15:05:40.109Z,16.30
2017-10-31T15:08:06.375Z,15.60
2017-10-31T15:10:33.072Z,14.80
2017-10-31T15:12:59.301Z,14.80
2017-10-31T15:15:25.526Z,14.30
2017-10-31T15:17:52.554Z,14.10
2017-10-31T15:20:18.823Z,13.90
2017-10-31T15:22:45.046Z,13.60
2017-10-31T15:25:11.313Z,13.50
2017-10-31T15:27:37.931Z,12.90
2017-10-31T15:30:04.232Z,12.90
2017-10-31T15:32:30.469Z,12.70
2017-10-31T15:34:56.685Z,12.50
2017-10-31T15:37:22.900Z,12.50
2017-10-31T15:39:49.141Z,12.30
2017-10-31T15:42:15.396Z,12.10
2017-10-31T15:44:41.681Z,11.70
2017-10-31T15:47:07.899Z,11.60
2017-10-31T15:49:34.135Z,11.50
2017-10-31T15:52:01.006Z,11.40
2017-10-31T15:54:27.292Z,11.30
2017-10-31T15:56:53.882Z,11.10
2017-10-31T15:59:20.109Z,11.10
2017-10-31T16:01:46.444Z,11.00
2017-10-31T16:04:13.679Z,10.90
2017-10-31T16:06:40.014Z,10.80
2017-10-31T16:09:06.371Z,10.60
2017-10-31T16:11:33.424Z,10.50
2017-10-31T16:14:00.089Z,10.30
2017-10-31T16:16:26.408Z,10.30
2017-10-31T16:18:53.015Z,10.10
2017-10-31T16:21:19.281Z,10.10
2017-10-31T16:23:45.880Z,9.80
2017-10-31T16:26:12.137Z,9.80
2017-10-31T16:28:38.380Z,9.70
2017-10-31T16:31:04.704Z,9.60
2017-10-31T16:33:31.425Z,9.50
2017-10-31T16:35:58.099Z,9.30
2017-10-31T16:38:24.347Z,9.30
2017-10-31T16:40:50.619Z,9.20
2017-10-31T16:43:16.845Z,9.10
2017-10-31T16:45:43.075Z,9.00
2017-10-31T16:48:09.324Z,8.90
2017-10-31T16:50:35.587Z,8.80
2017-10-31T16:53:02.472Z,8.70
2017-10-31T16:55:29.660Z,8.60
2017-10-31T16:57:55.925Z,8.60
2017-10-31T17:00:22.189Z,8.50
2017-10-31T17:02:48.906Z,8.40
2017-10-31T17:05:15.164Z,8.40
2017-10-31T17:07:41.861Z,8.20
2017-10-31T17:10:08.184Z,8.20
2017-10-31T17:12:34.602Z,8.20
2017-10-31T17:15:00.943Z,8.10
2017-10-31T17:17:27.215Z,8.10
2017-10-31T17:19:53.800Z,7.90
2017-10-31T17:22:20.060Z,7.90
2017-10-31T17:24:46.277Z,7.80
2017-10-31T17:27:12.564Z,7.80
2017-10-31T17:29:38.820Z,7.70
2017-10-31T17:32:05.582Z,7.60
2017-10-31T17:34:31.865Z,7.60
2017-10-31T17:36:58.125Z,7.60
2017-10-31T17:39:24.328Z,7.60
2017-10-31T17:41:50.595Z,7.60
2017-10-31T17:44:17.539Z,7.60
2017-10-31T17:46:43.799Z,7.60
2017-10-31T17:49:10.406Z,7.50
2017-10-31T17:51:37.558Z,7.50
2017-10-31T17:54:03.751Z,7.50
2017-10-31T17:56:29.981Z,7.40
2017-10-31T17:58:56.501Z,7.40
2017-10-31T18:01:22.799Z,7.40
2017-10-31T18:03:49.392Z,7.20
2017-10-31T18:06:15.674Z,7.20
2017-10-31T18:08:42.381Z,7.10
2017-10-31T18:11:08.649Z,7.10
2017-10-31T18:13:34.873Z,7.10
2017-10-31T18:16:01.509Z,7.00
2017-10-31T18:18:27.758Z,7.00
2017-10-31T18:20:54.030Z,6.90
2017-10-31T18:23:20.297Z,6.80
2017-10-31T18:25:46.492Z,6.80
2017-10-31T18:28:12.749Z,6.80
2017-10-31T18:30:39.037Z,6.70
2017-10-31T18:33:05.339Z,6.60
2017-10-31T18:35:31.597Z,6.70
2017-10-31T18:37:57.856Z,6.60
2017-10-31T18:40:24.100Z,6.60
2017-10-31T18:42:50.362Z,6.50
2017-10-31T18:45:16.583Z,6.50
2017-10-31T18:47:42.877Z,6.40
2017-10-31T18:50:09.507Z,6.30
2017-10-31T18:52:36.129Z,6.30
2017-10-31T18:55:02.379Z,6.30
2017-10-31T18:57:30.444Z,6.30
2017-10-31T18:59:57.044Z,6.30
2017-10-31T19:02:23.285Z,6.30
2017-10-31T19:04:49.594Z,6.20
2017-10-31T19:07:15.865Z,6.20
2017-10-31T19:09:43.028Z,6.20
2017-10-31T19:12:09.700Z,6.30
2017-10-31T19:14:35.989Z,6.30
2017-10-31T19:17:02.598Z,6.30
2017-10-31T19:19:28.878Z,6.30
2017-10-31T19:21:55.176Z,6.40
2017-10-31T19:24:21.400Z,6.50
2017-10-31T19:26:47.663Z,6.50
2017-10-31T19:29:13.911Z,6.60
2017-10-31T19:31:40.171Z,6.60
2017-10-31T19:34:06.409Z,6.70
2017-10-31T19:36:32.694Z,6.60
2017-10-31T19:38:58.985Z,6.70
2017-10-31T19:41:25.626Z,6.70
2017-10-31T19:43:52.366Z,6.70
2017-10-31T19:46:18.610Z,6.70
2017-10-31T19:48:44.999Z,6.70
2017-10-31T19:51:11.271Z,6.70
2017-10-31T19:53:37.528Z,6.70
2017-10-31T19:56:03.838Z,6.70
2017-10-31T19:58:30.235Z,6.70
2017-10-31T20:00:56.652Z,6.80
2017-10-31T20:03:22.948Z,6.80
2017-10-31T20:05:49.284Z,6.80
2017-10-31T20:08:16.438Z,6.80
2017-10-31T20:10:43.972Z,6.90
2017-10-31T20:13:10.234Z,6.90
2017-10-31T20:15:36.471Z,6.80
2017-10-31T20:18:02.799Z,6.80
2017-10-31T20:20:29.114Z,6.80
2017-10-31T20:22:55.399Z,6.80
2017-10-31T20:25:22.122Z,6.70
2017-10-31T20:27:48.347Z,6.70
2017-10-31T20:30:14.733Z,6.60
2017-10-31T20:32:40.994Z,6.60
2017-10-31T20:35:07.368Z,6.60
2017-10-31T20:37:33.631Z,6.70
2017-10-31T20:39:59.945Z,6.80
2017-10-31T20:42:26.230Z,6.80
2017-10-31T20:44:52.535Z,6.90
2017-10-31T20:47:18.787Z,6.90
2017-10-31T20:49:45.092Z,6.90
2017-10-31T20:52:11.350Z,6.80
2017-10-31T20:54:38.107Z,7.00
2017-10-31T20:57:04.316Z,7.00
2017-10-31T20:59:30.630Z,7.00
2017-10-31T21:01:56.901Z,7.00
2017-10-31T21:04:23.301Z,7.10
2017-10-31T21:06:49.928Z,7.00
2017-10-31T21:09:16.698Z,7.00
2017-10-31T21:11:42.973Z,6.90
2017-10-31T21:14:09.503Z,6.80
2017-10-31T21:16:35.743Z,6.90
2017-10-31T21:19:01.976Z,7.10
2017-10-31T21:21:29.125Z,7.20
2017-10-31T21:23:55.424Z,7.20
2017-10-31T21:26:21.777Z,7.20
2017-10-31T21:28:48.684Z,7.20
2017-10-31T21:31:14.958Z,7.20
2017-10-31T21:33:42.074Z,7.20
2017-10-31T21:36:08.337Z,7.30
2017-10-31T21:38:34.625Z,7.10
2017-10-31T21:41:00.871Z,7.10
2017-10-31T21:43:27.208Z,7.00
2017-10-31T21:45:53.423Z,7.00
2017-10-31T21:48:19.796Z,7.10
2017-10-31T21:50:46.018Z,7.20
2017-10-31T21:53:12.321Z,7.20
2017-10-31T21:55:38.601Z,7.10
2017-10-31T21:58:05.208Z,7.10
2017-10-31T22:00:32.330Z,7.10
2017-10-31T22:02:58.585Z,7.20
2017-10-31T22:05:24.838Z,7.30
2017-10-31T22:07:51.057Z,7.40
2017-10-31T22:10:17.326Z,7.40
2017-10-31T22:12:43.537Z,7.30
2017-10-31T22:15:10.152Z,7.30
2017-10-31T22:17:36.356Z,7.30
2017-10-31T22:20:02.596Z,7.20
2017-10-31T22:22:28.818Z,7.40
2017-10-31T22:24:55.048Z,7.40
2017-10-31T22:27:21.308Z,7.50
2017-10-31T22:29:47.616Z,7.40
2017-10-31T22:32:13.877Z,7.40
2017-10-31T22:34:40.086Z,7.30
2017-10-31T22:37:06.307Z,7.20
2017-10-31T22:39:32.523Z,7.10
2017-10-31T22:41:59.033Z,7.00
2017-10-31T22:44:25.288Z,7.20
2017-10-31T22:46:51.557Z,7.10
2017-10-31T22:49:17.830Z,7.10
2017-10-31T22:51:46.276Z,7.10
2017-10-31T22:54:12.554Z,7.20
2017-10-31T22:56:38.901Z,7.30
2017-10-31T22:59:05.138Z,7.30
2017-10-31T23:01:31.769Z,7.40
2017-10-31T23:03:58.029Z,7.40
2017-10-31T23:06:24.266Z,7.60
2017-10-31T23:08:50.491Z,7.50
2017-10-31T23:11:16.714Z,7.40
2017-10-31T23:13:42.953Z,7.30
2017-10-31T23:16:09.175Z,7.30
2017-10-31T23:18:35.407Z,7.30
2017-10-31T23:21:01.698Z,7.40
2017-10-31T23:23:28.551Z,7.40
2017-10-31T23:25:54.792Z,7.40
2017-10-31T23:28:21.001Z,7.40
2017-10-31T23:30:47.849Z,7.30
2017-10-31T23:33:14.422Z,7.40
2017-10-31T23:35:40.603Z,7.40
2017-10-31T23:38:06.880Z,7.40
2017-10-31T23:40:33.081Z,7.60
2017-10-31T23:42:59.306Z,7.50
2017-10-31T23:45:25.529Z,7.50
2017-10-31T23:47:53.092Z,7.40
2017-10-31T23:50:19.649Z,7.40
2017-10-31T23:52:45.875Z,7.40
2017-10-31T23:55:12.094Z,7.40
2017-10-31T23:57:38.354Z,7.40
